createdAt,value
2023-12-28T00:02:24.427Z,7.16
2023-12-28T00:04:51.866Z,7.19
2023-12-28T00:07:18.848Z,7.20
2023-12-28T00:09:46.148Z,7.15
2023-12-28T00:12:13.009Z,7.23
2023-12-28T00:14:39.809Z,7.26
2023-12-28T00:17:06.914Z,7.22
2023-12-28T00:19:33.795Z,7.22
2023-12-28T00:22:00.633Z,7.24
2023-12-28T00:24:27.622Z,7.23
2023-12-28T00:26:54.413Z,7.29
2023-12-28T00:29:21.133Z,7.25
2023-12-28T00:31:47.887Z,7.28
2023-12-28T00:34:15.190Z,7.35
2023-12-28T00:36:42.090Z,7.34
2023-12-28T00:39:09.704Z,7.47
2023-12-28T00:41:36.719Z,7.44
2023-12-28T00:44:03.508Z,7.42
2023-12-28T00:46:30.260Z,7.43
2023-12-28T00:48:57.067Z,7.44
2023-12-28T00:51:23.827Z,7.52
2023-12-28T00:53:50.672Z,7.64
2023-12-28T00:56:17.593Z,7.70
2023-12-28T00:58:45.087Z,7.69
2023-12-28T01:01:12.294Z,7.72
2023-12-28T01:03:39.494Z,7.76
2023-12-28T01:06:06.714Z,7.85
2023-12-28T01:08:35.211Z,7.80
2023-12-28T01:11:02.650Z,7.85
2023-12-28T01:13:29.897Z,7.91
2023-12-28T01:15:56.724Z,8.01
2023-12-28T01:18:23.675Z,7.99
2023-12-28T01:20:50.514Z,8.02
2023-12-28T01:23:17.305Z,8.00
2023-12-28T01:25:44.053Z,8.01
2023-12-28T01:28:10.854Z,8.01
2023-12-28T01:30:37.648Z,8.08
2023-12-28T01:33:04.981Z,8.01
2023-12-28T01:35:31.854Z,8.03
2023-12-28T01:37:58.970Z,8.03
2023-12-28T01:40:25.839Z,8.07
2023-12-28T01:42:52.788Z,8.08
2023-12-28T01:45:19.595Z,8.24
2023-12-28T01:47:48.622Z,8.21
2023-12-28T01:50:15.722Z,8.13
2023-12-28T01:52:42.753Z,8.25
2023-12-28T01:55:09.950Z,8.29
2023-12-28T01:57:37.239Z,8.27
2023-12-28T02:00:05.005Z,8.24
2023-12-28T02:02:33.385Z,8.16
2023-12-28T02:05:00.595Z,8.26
2023-12-28T02:07:28.250Z,8.24
2023-12-28T02:09:55.012Z,8.35
2023-12-28T02:12:22.085Z,8.32
2023-12-28T02:14:49.392Z,8.28
2023-12-28T02:17:37.350Z,8.29
2023-12-28T02:20:07.694Z,8.30
2023-12-28T02:22:35.450Z,8.43
2023-12-28T02:25:07.557Z,8.41
2023-12-28T02:27:55.379Z,8.35
2023-12-28T02:30:24.441Z,8.39
2023-12-28T02:33:10.250Z,8.37
2023-12-28T02:35:44.320Z,8.43
2023-12-28T02:38:12.507Z,8.46
2023-12-28T02:40:41.938Z,8.51
2023-12-28T02:43:09.473Z,8.51
2023-12-28T02:45:36.860Z,8.50
2023-12-28T02:48:04.943Z,8.56
2023-12-28T02:50:33.607Z,8.58
2023-12-28T02:53:00.688Z,8.59
2023-12-28T02:55:27.602Z,8.59
2023-12-28T02:58:00.728Z,8.62
2023-12-28T03:00:28.593Z,8.69
2023-12-28T03:02:55.806Z,8.59
2023-12-28T03:05:22.862Z,8.68
2023-12-28T03:07:49.916Z,8.68
2023-12-28T03:10:17.136Z,8.63
2023-12-28T03:12:43.886Z,8.66
2023-12-28T03:15:10.730Z,8.68
2023-12-28T03:17:40.180Z,8.69
2023-12-28T03:20:07.540Z,8.54
2023-12-28T03:22:34.485Z,8.63
2023-12-28T03:25:01.352Z,8.64
2023-12-28T03:27:28.216Z,8.60
2023-12-28T03:29:55.045Z,8.72
2023-12-28T03:32:21.813Z,8.75
2023-12-28T03:34:48.873Z,8.65
2023-12-28T03:37:15.655Z,8.74
2023-12-28T03:39:42.551Z,8.66
2023-12-28T03:42:09.390Z,8.70
2023-12-28T03:44:36.151Z,8.77
2023-12-28T03:47:03.013Z,8.66
2023-12-28T03:49:29.866Z,8.73
2023-12-28T03:51:56.908Z,8.77
2023-12-28T03:54:23.915Z,8.77
2023-12-28T03:56:50.692Z,8.76
2023-12-28T03:59:17.615Z,8.77
2023-12-28T04:01:45.143Z,8.71
2023-12-28T04:04:12.235Z,8.79
2023-12-28T04:06:39.621Z,8.79
2023-12-28T04:09:06.605Z,8.66
2023-12-28T04:11:33.440Z,8.58
2023-12-28T04:14:00.376Z,8.55
2023-12-28T04:16:27.115Z,8.54
2023-12-28T04:18:53.999Z,8.51
2023-12-28T04:21:20.983Z,8.47
2023-12-28T04:23:47.794Z,8.43
2023-12-28T04:26:14.504Z,8.35
2023-12-28T04:28:41.443Z,8.45
2023-12-28T04:31:08.456Z,8.45
2023-12-28T04:33:35.739Z,8.30
2023-12-28T04:36:05.287Z,8.31
2023-12-28T04:38:32.698Z,8.38
2023-12-28T04:41:00.467Z,8.24
2023-12-28T04:43:27.668Z,8.24
2023-12-28T04:45:54.878Z,8.24
2023-12-28T04:48:22.660Z,8.26
2023-12-28T04:50:49.783Z,8.23
2023-12-28T04:53:16.911Z,8.32
2023-12-28T04:55:43.933Z,8.21
2023-12-28T04:58:13.381Z,8.22
2023-12-28T05:00:40.455Z,8.28
2023-12-28T05:03:07.635Z,8.28
2023-12-28T05:05:35.120Z,8.45
2023-12-28T05:08:02.285Z,8.40
2023-12-28T05:10:29.271Z,8.33
2023-12-28T05:13:01.536Z,8.33
2023-12-28T05:15:29.831Z,8.39
2023-12-28T05:17:57.408Z,8.31
2023-12-28T05:20:24.525Z,8.23
2023-12-28T05:22:51.338Z,8.27
2023-12-28T05:25:18.197Z,8.27
2023-12-28T05:27:45.164Z,8.21
2023-12-28T05:30:13.341Z,8.24
2023-12-28T05:32:40.655Z,8.26
2023-12-28T05:35:08.368Z,8.53
2023-12-28T05:37:35.167Z,8.51
2023-12-28T05:40:02.190Z,8.53
2023-12-28T05:42:29.144Z,8.51
2023-12-28T05:44:55.953Z,8.50
2023-12-28T05:47:22.744Z,8.52
2023-12-28T05:49:49.745Z,8.56
2023-12-28T05:52:19.765Z,8.71
2023-12-28T05:54:46.936Z,8.59
2023-12-28T05:57:13.781Z,8.74
2023-12-28T05:59:43.520Z,8.72
2023-12-28T06:02:10.344Z,8.73
2023-12-28T06:04:37.287Z,8.72
2023-12-28T06:07:05.923Z,8.80
2023-12-28T06:09:33.005Z,8.92
2023-12-28T06:12:00.370Z,8.85
2023-12-28T06:14:27.172Z,8.82
2023-12-28T06:16:56.307Z,8.77
2023-12-28T06:19:23.904Z,8.77
2023-12-28T06:21:50.976Z,8.89
2023-12-28T06:24:18.005Z,8.77
2023-12-28T06:26:45.933Z,8.71
2023-12-28T06:29:13.130Z,8.76
2023-12-28T06:31:40.340Z,8.70
2023-12-28T06:34:10.199Z,8.62
2023-12-28T06:36:37.237Z,8.78
2023-12-28T06:39:05.888Z,8.81
2023-12-28T06:41:33.031Z,8.80
2023-12-28T06:44:00.475Z,8.81
2023-12-28T06:46:27.545Z,8.82
2023-12-28T06:48:54.508Z,8.90
2023-12-28T06:51:22.192Z,8.89
2023-12-28T06:53:50.250Z,8.88
2023-12-28T06:56:17.444Z,8.94
2023-12-28T06:58:44.400Z,8.97
2023-12-28T07:01:12.942Z,8.93
2023-12-28T07:03:40.413Z,8.98
2023-12-28T07:06:07.606Z,9.06
2023-12-28T07:08:36.515Z,9.09
2023-12-28T07:11:05.089Z,9.04
2023-12-28T07:13:32.736Z,9.12
2023-12-28T07:16:00.625Z,9.16
2023-12-28T07:18:29.461Z,9.17
2023-12-28T07:20:56.696Z,9.13
2023-12-28T07:23:23.664Z,9.11
2023-12-28T07:25:50.712Z,9.20
2023-12-28T07:28:17.438Z,9.25
2023-12-28T07:30:44.393Z,9.21
2023-12-28T07:33:11.650Z,9.20
2023-12-28T07:35:38.788Z,9.21
2023-12-28T07:38:05.560Z,9.25
2023-12-28T07:40:32.340Z,9.31
2023-12-28T07:42:59.261Z,9.30
2023-12-28T07:45:26.412Z,9.45
2023-12-28T07:47:53.923Z,9.43
2023-12-28T07:50:21.997Z,9.47
2023-12-28T07:52:50.832Z,9.51
2023-12-28T07:55:17.863Z,9.56
2023-12-28T07:57:44.915Z,9.51
2023-12-28T08:00:12.450Z,9.48
2023-12-28T08:02:39.765Z,9.46
2023-12-28T08:05:07.229Z,9.47
2023-12-28T08:07:34.144Z,9.54
2023-12-28T08:10:02.219Z,9.57
2023-12-28T08:12:29.980Z,9.45
2023-12-28T08:14:57.476Z,9.60
2023-12-28T08:17:24.527Z,9.56
2023-12-28T08:19:51.769Z,9.56
2023-12-28T08:22:19.946Z,9.69
2023-12-28T08:24:47.042Z,9.48
2023-12-28T08:27:14.032Z,9.47
2023-12-28T08:29:45.267Z,9.45
2023-12-28T08:32:12.387Z,9.54
2023-12-28T08:34:40.521Z,9.48
2023-12-28T08:37:07.975Z,9.48
2023-12-28T08:39:34.980Z,9.50
2023-12-28T08:42:02.460Z,9.53
2023-12-28T08:44:29.310Z,9.54
2023-12-28T08:46:56.199Z,9.57
2023-12-28T08:49:23.921Z,9.61
2023-12-28T08:51:51.738Z,9.59
2023-12-28T08:54:18.807Z,9.65
2023-12-28T08:56:46.592Z,9.67
2023-12-28T08:59:14.306Z,9.71
2023-12-28T09:01:41.219Z,9.79
2023-12-28T09:04:08.191Z,9.80
2023-12-28T09:06:36.649Z,9.85
2023-12-28T09:09:04.956Z,9.76
2023-12-28T09:11:31.828Z,9.82
2023-12-28T09:13:58.667Z,9.92
2023-12-28T09:16:25.698Z,10.04
2023-12-28T09:18:52.887Z,10.01
2023-12-28T09:21:19.792Z,9.99
2023-12-28T09:23:46.579Z,10.13
2023-12-28T09:26:14.010Z,10.18
2023-12-28T09:28:42.031Z,10.30
2023-12-28T09:31:09.036Z,10.39
2023-12-28T09:33:36.180Z,10.43
2023-12-28T09:36:05.184Z,10.55
2023-12-28T09:38:31.846Z,10.62
2023-12-28T09:41:04.793Z,10.67
2023-12-28T09:43:38.959Z,10.74
2023-12-28T09:46:09.411Z,10.71
2023-12-28T09:48:40.322Z,10.63
2023-12-28T09:51:08.367Z,10.58
2023-12-28T09:53:36.108Z,10.71
2023-12-28T09:56:04.261Z,10.73
2023-12-28T09:58:34.399Z,10.65
2023-12-28T10:01:02.450Z,10.60
2023-12-28T10:03:29.441Z,10.59
2023-12-28T10:05:56.854Z,10.58
2023-12-28T10:08:23.623Z,10.59
2023-12-28T10:10:55.416Z,10.65
2023-12-28T10:13:22.801Z,10.60
2023-12-28T10:15:50.897Z,10.61
2023-12-28T10:18:21.385Z,10.84
2023-12-28T10:20:52.179Z,10.76
2023-12-28T10:23:20.374Z,10.86
2023-12-28T10:25:47.240Z,10.97
2023-12-28T10:28:14.380Z,10.94
2023-12-28T10:30:44.067Z,11.00
2023-12-28T10:33:11.337Z,11.00
2023-12-28T10:35:38.438Z,10.93
2023-12-28T10:38:06.327Z,10.98
2023-12-28T10:40:37.976Z,10.95
2023-12-28T10:43:09.494Z,10.96
2023-12-28T10:45:40.567Z,10.93
2023-12-28T10:48:09.508Z,10.79
2023-12-28T10:50:43.746Z,10.74
2023-12-28T10:53:47.905Z,10.73
2023-12-28T10:56:29.045Z,10.82
2023-12-28T10:59:23.956Z,10.86
2023-12-28T11:01:55.750Z,10.85
2023-12-28T11:04:38.884Z,10.75
2023-12-28T11:07:08.135Z,10.62
2023-12-28T11:09:36.020Z,10.47
2023-12-28T11:12:05.407Z,10.42
2023-12-28T11:14:32.580Z,10.53
2023-12-28T11:17:03.502Z,10.49
2023-12-28T11:19:31.269Z,10.45
2023-12-28T11:22:01.134Z,10.29
2023-12-28T11:24:29.834Z,10.19
2023-12-28T11:26:56.849Z,10.18
2023-12-28T11:29:26.899Z,10.14
2023-12-28T11:31:58.931Z,10.07
2023-12-28T11:34:34.661Z,10.01
2023-12-28T11:37:05.704Z,10.02
2023-12-28T11:39:38.049Z,9.98
2023-12-28T11:42:06.754Z,9.95
2023-12-28T11:44:40.416Z,9.94
2023-12-28T11:47:36.767Z,9.91
2023-12-28T11:50:10.257Z,9.93
2023-12-28T11:52:37.119Z,9.88
2023-12-28T11:55:05.718Z,9.89
2023-12-28T11:57:35.424Z,9.85
2023-12-28T12:00:05.992Z,9.94
2023-12-28T12:02:32.791Z,10.01
2023-12-28T12:04:59.630Z,10.01
2023-12-28T12:07:26.943Z,10.11
2023-12-28T12:10:00.741Z,10.25
2023-12-28T12:12:28.365Z,10.21
2023-12-28T12:14:56.356Z,10.33
2023-12-28T12:17:23.308Z,10.45
2023-12-28T12:19:52.549Z,10.58
2023-12-28T12:22:20.394Z,10.65
2023-12-28T12:24:49.956Z,10.69
2023-12-28T12:27:17.133Z,10.69
2023-12-28T12:29:44.142Z,10.76
2023-12-28T12:32:11.696Z,10.77
2023-12-28T12:34:41.000Z,10.81
2023-12-28T12:37:08.135Z,10.76
2023-12-28T12:39:35.387Z,10.70
2023-12-28T12:42:02.269Z,10.64
2023-12-28T12:44:29.219Z,10.68
2023-12-28T12:47:03.138Z,10.61
2023-12-28T12:49:29.991Z,10.56
2023-12-28T12:51:56.916Z,10.61
2023-12-28T12:54:24.066Z,10.58
2023-12-28T12:56:52.119Z,10.64
2023-12-28T12:59:19.177Z,10.61
2023-12-28T13:01:50.164Z,10.57
2023-12-28T13:04:20.956Z,10.63
2023-12-28T13:06:48.122Z,10.58
2023-12-28T13:09:15.434Z,10.54
2023-12-28T13:11:42.487Z,10.51
2023-12-28T13:14:09.290Z,10.52
2023-12-28T13:16:36.031Z,10.45
2023-12-28T13:19:03.165Z,10.43
2023-12-28T13:21:30.059Z,10.36
2023-12-28T13:24:00.940Z,10.35
2023-12-28T13:26:27.995Z,10.35
2023-12-28T13:28:54.828Z,10.40
2023-12-28T13:31:21.840Z,10.43
2023-12-28T13:33:48.994Z,10.52
2023-12-28T13:36:16.016Z,10.55
2023-12-28T13:38:42.828Z,10.48
2023-12-28T13:41:09.932Z,10.42
2023-12-28T13:43:37.075Z,10.29
2023-12-28T13:46:05.359Z,10.33
2023-12-28T13:48:32.525Z,10.28
2023-12-28T13:50:59.511Z,10.24
2023-12-28T13:53:27.467Z,10.20
2023-12-28T13:55:54.279Z,10.17
2023-12-28T13:58:21.177Z,10.17
2023-12-28T14:00:48.375Z,10.18
2023-12-28T14:03:15.368Z,10.14
2023-12-28T14:05:43.897Z,10.12
2023-12-28T14:08:11.125Z,10.11
2023-12-28T14:10:39.704Z,10.12
2023-12-28T14:13:06.968Z,10.10
2023-12-28T14:15:34.052Z,10.16
2023-12-28T14:18:00.998Z,10.18
2023-12-28T14:20:29.277Z,10.24
2023-12-28T14:22:56.786Z,10.26
2023-12-28T14:25:24.253Z,10.29
2023-12-28T14:27:52.249Z,10.30
2023-12-28T14:30:19.913Z,10.46
2023-12-28T14:32:47.426Z,10.38
2023-12-28T14:35:17.186Z,10.40
2023-12-28T14:37:47.651Z,10.35
2023-12-28T14:40:14.402Z,10.38
2023-12-28T14:42:41.620Z,10.42
2023-12-28T14:45:08.925Z,10.43
2023-12-28T14:47:36.822Z,10.34
2023-12-28T14:50:06.643Z,10.43
2023-12-28T14:52:33.346Z,10.38
2023-12-28T14:55:00.105Z,10.42
2023-12-28T14:57:27.296Z,10.46
2023-12-28T14:59:54.216Z,10.45
2023-12-28T15:02:20.987Z,10.47
2023-12-28T15:04:47.924Z,10.40
2023-12-28T15:07:14.931Z,10.45
2023-12-28T15:09:41.713Z,10.36
2023-12-28T15:12:09.338Z,10.32
2023-12-28T15:14:36.326Z,10.29
2023-12-28T15:17:03.698Z,10.27
2023-12-28T15:19:31.738Z,10.28
2023-12-28T15:21:58.824Z,10.26
2023-12-28T15:24:27.611Z,10.36
2023-12-28T15:26:54.663Z,10.29
2023-12-28T15:29:21.338Z,10.17
2023-12-28T15:31:51.561Z,10.14
2023-12-28T15:34:19.058Z,10.16
2023-12-28T15:36:46.082Z,10.10
2023-12-28T15:39:12.802Z,10.07
2023-12-28T15:41:39.983Z,10.02
2023-12-28T15:44:07.103Z,10.08
2023-12-28T15:46:34.667Z,10.05
2023-12-28T15:49:02.765Z,10.08
2023-12-28T15:51:29.610Z,10.06
2023-12-28T15:53:56.423Z,10.14
2023-12-28T15:59:40.971Z,10.11
2023-12-28T16:02:07.729Z,10.11
2023-12-28T16:04:34.497Z,10.11
2023-12-28T16:07:01.432Z,10.07
2023-12-28T16:09:28.343Z,10.07
2023-12-28T16:11:55.220Z,10.06
2023-12-28T16:14:22.417Z,10.04
2023-12-28T16:16:49.895Z,10.06
2023-12-28T16:19:17.176Z,10.07
2023-12-28T16:21:44.519Z,10.08
2023-12-28T16:24:11.226Z,10.09
2023-12-28T16:26:38.454Z,10.15
2023-12-28T16:29:05.208Z,10.11
2023-12-28T16:31:32.204Z,10.13
2023-12-28T16:33:59.050Z,10.18
2023-12-28T16:36:25.926Z,10.17
2023-12-28T16:38:53.118Z,10.16
2023-12-28T16:41:21.229Z,10.26
2023-12-28T16:43:50.551Z,10.23
2023-12-28T16:46:18.058Z,10.25
2023-12-28T16:48:45.203Z,10.21
2023-12-28T16:51:12.543Z,10.28
2023-12-28T16:53:39.422Z,10.34
2023-12-28T16:56:06.716Z,10.27
2023-12-28T16:58:33.463Z,10.31
2023-12-28T17:01:00.374Z,10.32
2023-12-28T17:03:27.923Z,10.35
2023-12-28T17:05:55.833Z,10.34
2023-12-28T17:08:22.792Z,10.37
2023-12-28T17:10:50.127Z,10.45
2023-12-28T17:13:18.069Z,10.31
2023-12-28T17:15:45.170Z,10.36
2023-12-28T17:18:13.328Z,10.35
2023-12-28T17:20:40.454Z,10.30
2023-12-28T17:23:10.551Z,10.27
2023-12-28T17:25:55.315Z,10.39
2023-12-28T17:28:25.078Z,10.22
2023-12-28T17:30:54.638Z,10.16
2023-12-28T17:33:23.280Z,10.19
2023-12-28T17:35:50.523Z,10.06
2023-12-28T17:38:17.627Z,10.11
2023-12-28T17:40:44.662Z,10.06
2023-12-28T17:43:33.628Z,9.99
2023-12-28T17:46:13.110Z,9.97
2023-12-28T17:48:44.072Z,9.96
2023-12-28T17:51:13.329Z,10.01
2023-12-28T17:53:40.436Z,10.00
2023-12-28T17:56:07.910Z,9.92
2023-12-28T17:58:34.580Z,10.01
2023-12-28T18:01:01.574Z,9.91
2023-12-28T18:03:28.462Z,9.96
2023-12-28T18:05:55.383Z,10.04
2023-12-28T18:08:22.884Z,10.08
2023-12-28T18:10:49.625Z,10.09
2023-12-28T18:13:16.772Z,10.09
2023-12-28T18:15:43.734Z,10.10
2023-12-28T18:18:10.537Z,10.12
2023-12-28T18:20:37.385Z,10.11
2023-12-28T18:23:04.265Z,10.14
2023-12-28T18:25:31.038Z,10.08
2023-12-28T18:27:58.120Z,10.14
2023-12-28T18:30:26.905Z,10.11
2023-12-28T18:32:53.819Z,10.15
2023-12-28T18:35:20.628Z,10.16
2023-12-28T18:37:47.422Z,10.04
2023-12-28T18:40:14.562Z,10.08
2023-12-28T18:42:41.458Z,10.20
2023-12-28T18:45:08.618Z,10.19
2023-12-28T18:47:35.743Z,10.11
2023-12-28T18:50:02.804Z,10.15
2023-12-28T18:52:29.657Z,10.14
2023-12-28T18:54:57.521Z,10.11
2023-12-28T18:57:24.819Z,10.05
2023-12-28T18:59:52.603Z,10.19
2023-12-28T19:02:23.034Z,10.12
2023-12-28T19:04:50.942Z,10.21
2023-12-28T19:07:18.362Z,10.17
2023-12-28T19:09:45.290Z,10.16
2023-12-28T19:12:12.581Z,10.17
2023-12-28T19:14:44.766Z,10.20
2023-12-28T19:17:11.942Z,10.25
2023-12-28T19:19:39.915Z,10.24
2023-12-28T19:22:07.033Z,10.26
2023-12-28T19:24:34.218Z,10.26
2023-12-28T19:27:01.101Z,10.28
2023-12-28T19:29:27.906Z,10.30
2023-12-28T19:31:56.501Z,10.28
2023-12-28T19:34:23.386Z,10.39
2023-12-28T19:36:50.449Z,10.41
2023-12-28T19:39:17.491Z,10.37
2023-12-28T19:41:44.497Z,10.45
2023-12-28T19:44:13.378Z,10.45
2023-12-28T19:46:40.393Z,10.43
2023-12-28T19:49:07.600Z,10.39
2023-12-28T19:51:34.781Z,10.45
2023-12-28T19:54:02.011Z,10.35
2023-12-28T19:56:29.809Z,10.47
2023-12-28T19:58:56.802Z,10.36
2023-12-28T20:01:23.746Z,10.45
2023-12-28T20:03:50.605Z,10.40
2023-12-28T20:06:17.546Z,10.43
2023-12-28T20:08:44.349Z,10.47
2023-12-28T20:11:11.277Z,10.55
2023-12-28T20:13:38.073Z,10.58
2023-12-28T20:16:06.852Z,10.48
2023-12-28T20:18:34.456Z,10.49
2023-12-28T20:21:02.478Z,10.51
2023-12-28T20:23:29.445Z,10.55
2023-12-28T20:25:56.150Z,10.58
2023-12-28T20:28:22.946Z,10.66
2023-12-28T20:30:49.866Z,10.59
2023-12-28T20:33:17.685Z,10.64
2023-12-28T20:35:46.527Z,10.63
2023-12-28T20:38:13.554Z,10.61
2023-12-28T20:40:40.360Z,10.63
2023-12-28T20:43:07.378Z,10.51
2023-12-28T20:45:36.294Z,10.54
2023-12-28T20:48:03.341Z,10.61
2023-12-28T20:50:30.423Z,10.63
2023-12-28T20:52:58.829Z,10.63
2023-12-28T20:55:25.948Z,10.64
2023-12-28T20:57:54.035Z,10.62
2023-12-28T21:00:21.308Z,10.49
2023-12-28T21:02:48.099Z,10.45
2023-12-28T21:05:15.007Z,10.48
2023-12-28T21:07:42.405Z,10.52
2023-12-28T21:10:10.666Z,10.43
2023-12-28T21:12:38.959Z,10.37
2023-12-28T21:15:07.718Z,10.34
2023-12-28T21:17:35.150Z,10.32
2023-12-28T21:20:02.944Z,10.27
2023-12-28T21:22:30.400Z,10.35
2023-12-28T21:24:57.509Z,10.37
2023-12-28T21:27:24.231Z,10.33
2023-12-28T21:29:51.192Z,10.25
2023-12-28T21:32:20.523Z,10.22
2023-12-28T21:34:47.996Z,10.24
2023-12-28T21:37:15.044Z,10.23
2023-12-28T21:39:42.284Z,10.15
2023-12-28T21:42:09.482Z,10.17
2023-12-28T21:44:37.461Z,10.17
2023-12-28T21:47:04.986Z,10.24
2023-12-28T21:49:31.968Z,10.19
2023-12-28T21:51:59.203Z,10.20
2023-12-28T21:54:26.105Z,10.29
2023-12-28T21:56:52.782Z,10.29
2023-12-28T21:59:23.436Z,10.27
2023-12-28T22:01:53.116Z,10.26
2023-12-28T22:04:23.772Z,10.18
2023-12-28T22:06:51.818Z,10.12
2023-12-28T22:09:19.758Z,10.15
2023-12-28T22:11:47.378Z,10.11
2023-12-28T22:14:14.319Z,10.31
2023-12-28T22:16:41.422Z,10.30
2023-12-28T22:19:08.276Z,10.16
2023-12-28T22:21:35.097Z,10.11
2023-12-28T22:24:01.981Z,10.13
2023-12-28T22:26:30.046Z,10.17
2023-12-28T22:28:56.751Z,10.21
2023-12-28T22:31:23.950Z,10.13
2023-12-28T22:33:51.090Z,10.12
2023-12-28T22:36:18.687Z,10.14
2023-12-28T22:38:45.445Z,10.15
2023-12-28T22:41:12.254Z,10.14
2023-12-28T22:43:39.050Z,10.15
2023-12-28T22:46:05.810Z,10.20
2023-12-28T22:48:33.674Z,10.20
2023-12-28T22:51:00.604Z,10.30
2023-12-28T22:53:27.386Z,10.17
2023-12-28T22:55:54.210Z,10.13
2023-12-28T22:58:21.236Z,9.98
2023-12-28T23:00:48.258Z,10.01
2023-12-28T23:03:15.189Z,9.96
2023-12-28T23:05:42.044Z,9.96
2023-12-28T23:08:08.849Z,9.88
2023-12-28T23:10:35.612Z,9.96
2023-12-28T23:13:02.827Z,9.94
2023-12-28T23:15:30.557Z,9.99
2023-12-28T23:17:58.857Z,9.94
2023-12-28T23:20:26.242Z,9.93
2023-12-28T23:22:53.202Z,9.97
2023-12-28T23:25:20.377Z,10.01
2023-12-28T23:27:48.979Z,9.99
2023-12-28T23:30:17.467Z,9.97
2023-12-28T23:32:44.998Z,9.85
2023-12-28T23:35:11.944Z,9.89
2023-12-28T23:37:39.117Z,9.75
2023-12-28T23:40:07.049Z,9.77
2023-12-28T23:42:36.445Z,9.73
2023-12-28T23:45:04.061Z,9.69
2023-12-28T23:47:30.748Z,9.71
2023-12-28T23:49:57.953Z,9.67
2023-12-28T23:52:24.678Z,9.63
2023-12-28T23:54:51.494Z,9.65
2023-12-28T23:57:18.376Z,9.63
2023-12-28T23:59:45.203Z,9.66
